createdAt,value
2018-07-04T00:02:36.450Z,47.29
2018-07-04T00:05:30.309Z,48.17
2018-07-04T00:08:23.929Z,48.00
2018-07-04T00:11:17.432Z,49.03
2018-07-04T00:14:11.062Z,48.25
2018-07-04T00:17:04.490Z,48.72
2018-07-04T00:19:58.104Z,49.32
2018-07-04T00:22:51.701Z,49.86
2018-07-04T00:25:45.527Z,50.40
2018-07-04T00:28:39.452Z,50.41
2018-07-04T00:31:33.465Z,51.26
2018-07-04T00:34:27.222Z,51.95
2018-07-04T00:37:20.890Z,51.60
2018-07-04T00:40:14.623Z,51.76
2018-07-04T00:43:08.152Z,51.29
2018-07-04T00:46:01.578Z,51.31
2018-07-04T00:48:55.003Z,52.10
2018-07-04T00:51:48.597Z,51.78
2018-07-04T00:54:42.183Z,52.71
2018-07-04T00:57:35.849Z,53.02
2018-07-04T01:00:29.639Z,52.64
2018-07-04T01:03:17.472Z,52.84
2018-07-04T01:06:10.974Z,52.97
2018-07-04T01:09:05.114Z,52.25
2018-07-04T01:11:58.706Z,52.44
2018-07-04T01:14:52.271Z,52.41
2018-07-04T01:17:45.887Z,52.81
2018-07-04T01:20:44.887Z,52.29
2018-07-04T01:23:38.366Z,51.75
2018-07-04T01:26:32.321Z,52.69
2018-07-04T01:29:26.371Z,52.91
2018-07-04T01:32:19.789Z,52.06
2018-07-04T01:35:07.772Z,53.75
2018-07-04T01:38:02.956Z,53.18
2018-07-04T01:40:56.523Z,53.94
2018-07-04T01:43:49.984Z,54.25
2018-07-04T01:46:43.588Z,54.43
2018-07-04T01:49:37.119Z,54.67
2018-07-04T01:52:30.857Z,53.67
2018-07-04T01:55:24.497Z,52.98
2018-07-04T01:58:18.038Z,54.02
2018-07-04T02:01:11.674Z,53.10
2018-07-04T02:03:59.296Z,52.70
2018-07-04T02:06:52.755Z,53.12
2018-07-04T02:09:47.604Z,54.40
2018-07-04T02:12:41.494Z,53.22
2018-07-04T02:15:35.310Z,53.72
2018-07-04T02:18:28.770Z,53.05
2018-07-04T02:21:22.367Z,52.99
2018-07-04T02:24:15.953Z,53.18
2018-07-04T02:27:03.512Z,53.93
2018-07-04T02:29:51.011Z,54.52
2018-07-04T02:32:44.633Z,55.32
2018-07-04T02:35:38.294Z,55.10
2018-07-04T02:38:31.897Z,55.70
2018-07-04T02:41:25.510Z,55.29
2018-07-04T02:44:19.455Z,55.38
2018-07-04T02:47:18.387Z,55.12
2018-07-04T02:50:12.198Z,56.11
2018-07-04T02:53:05.879Z,55.49
2018-07-04T02:55:59.499Z,55.68
2018-07-04T02:58:53.324Z,55.62
2018-07-04T03:01:47.306Z,55.16
2018-07-04T03:04:34.887Z,55.14
2018-07-04T03:07:28.308Z,54.98
2018-07-04T03:10:21.879Z,54.77
2018-07-04T03:13:15.499Z,54.40
2018-07-04T03:16:09.397Z,54.36
2018-07-04T03:18:57.007Z,54.51
2018-07-04T03:21:50.449Z,53.70
2018-07-04T03:24:44.081Z,54.12
2018-07-04T03:27:37.557Z,53.63
2018-07-04T03:30:25.113Z,53.46
2018-07-04T03:33:18.673Z,53.18
2018-07-04T03:36:12.377Z,52.33
2018-07-04T03:39:06.869Z,52.56
2018-07-04T03:42:00.676Z,51.76
2018-07-04T03:44:54.465Z,50.92
2018-07-04T03:47:48.733Z,52.80
2018-07-04T03:50:42.270Z,52.94
2018-07-04T03:53:37.829Z,52.81
2018-07-04T03:56:32.078Z,52.97
2018-07-04T03:59:25.915Z,52.60
2018-07-04T04:02:19.722Z,52.22
2018-07-04T04:05:13.787Z,52.40
2018-07-04T04:08:07.581Z,51.60
2018-07-04T04:11:01.346Z,51.45
2018-07-04T04:13:55.044Z,50.58
2018-07-04T04:16:49.023Z,50.91
2018-07-04T04:19:42.960Z,50.93
2018-07-04T04:22:36.552Z,50.19
2018-07-04T04:25:30.283Z,49.39
2018-07-04T04:28:24.105Z,49.37
2018-07-04T04:31:18.047Z,49.29
2018-07-04T04:34:11.820Z,50.11
2018-07-04T04:37:05.604Z,49.41
2018-07-04T04:40:06.299Z,50.02
2018-07-04T04:43:00.021Z,49.50
2018-07-04T04:45:53.616Z,49.98
2018-07-04T04:48:47.490Z,50.74
2018-07-04T04:51:41.065Z,50.31
2018-07-04T04:54:34.746Z,50.41
2018-07-04T04:57:28.477Z,50.79
2018-07-04T05:00:16.407Z,50.34
2018-07-04T05:03:10.077Z,50.46
2018-07-04T05:06:03.949Z,50.91
2018-07-04T05:08:57.590Z,50.15
2018-07-04T05:11:51.687Z,50.76
2018-07-04T05:14:45.183Z,50.34
2018-07-04T05:21:10.832Z,49.76
2018-07-04T05:24:04.426Z,49.61
2018-07-04T05:26:57.952Z,49.42
2018-07-04T05:29:55.383Z,50.08
2018-07-04T05:32:48.965Z,50.30
2018-07-04T05:35:42.787Z,50.00
2018-07-04T05:38:36.521Z,50.04
2018-07-04T05:41:30.106Z,51.04
2018-07-04T05:44:24.006Z,50.71
2018-07-04T05:47:18.109Z,50.59
2018-07-04T05:50:20.039Z,52.15
2018-07-04T05:56:20.880Z,52.96
2018-07-04T05:59:14.678Z,54.17
2018-07-04T06:02:08.987Z,53.52
2018-07-04T06:05:02.889Z,52.66
2018-07-04T06:07:56.566Z,53.34
2018-07-04T06:10:50.109Z,51.50
2018-07-04T06:13:37.675Z,51.42
2018-07-04T06:16:31.313Z,50.50
2018-07-04T06:19:24.996Z,50.53
2018-07-04T06:22:18.487Z,49.42
2018-07-04T06:25:12.270Z,49.12
2018-07-04T06:28:05.890Z,48.79
2018-07-04T06:30:59.423Z,47.75
2018-07-04T06:33:53.098Z,47.96
2018-07-04T06:36:46.908Z,46.91
2018-07-04T06:39:22.607Z,47.74
2018-07-04T06:41:52.018Z,47.12
2018-07-04T06:44:20.921Z,46.83
2018-07-04T06:46:52.303Z,47.22
2018-07-04T06:49:23.488Z,47.41
2018-07-04T06:51:52.388Z,46.23
2018-07-04T06:54:24.612Z,46.86
2018-07-04T06:56:53.516Z,45.62
2018-07-04T06:59:25.176Z,45.46
2018-07-04T07:01:54.075Z,45.45
2018-07-04T07:04:48.582Z,45.12
2018-07-04T07:07:42.252Z,45.43
2018-07-04T07:10:38.360Z,44.02
2018-07-04T07:13:31.743Z,43.89
2018-07-04T07:16:27.305Z,43.83
2018-07-04T07:19:20.755Z,43.95
2018-07-04T07:22:14.364Z,43.14
2018-07-04T07:25:08.040Z,44.56
2018-07-04T07:28:01.649Z,44.05
2018-07-04T07:30:55.830Z,44.61
2018-07-04T07:33:49.560Z,43.80
2018-07-04T07:36:43.172Z,42.67
2018-07-04T07:39:36.677Z,42.21
2018-07-04T07:42:34.978Z,40.79
2018-07-04T07:45:28.498Z,41.28
2018-07-04T07:48:22.140Z,42.11
2018-07-04T07:51:15.794Z,42.71
2018-07-04T07:54:10.232Z,42.88
2018-07-04T07:57:04.683Z,42.25
2018-07-04T07:59:52.274Z,41.36
2018-07-04T08:02:45.896Z,40.21
2018-07-04T08:05:39.553Z,38.99
2018-07-04T08:08:33.173Z,39.25
2018-07-04T08:11:26.633Z,39.55
2018-07-04T08:14:20.173Z,37.98
2018-07-04T08:17:13.899Z,37.60
2018-07-04T08:20:07.747Z,37.73
2018-07-04T08:23:02.048Z,38.03
2018-07-04T08:25:55.571Z,37.79
2018-07-04T08:28:49.935Z,38.92
2018-07-04T08:31:43.693Z,38.15
2018-07-04T08:34:38.597Z,38.04
2018-07-04T08:37:37.296Z,39.61
2018-07-04T08:40:32.046Z,39.34
2018-07-04T08:43:25.729Z,39.19
2018-07-04T08:46:20.757Z,39.04
2018-07-04T08:49:14.433Z,36.80
2018-07-04T08:52:08.142Z,36.03
2018-07-04T08:55:01.668Z,36.64
2018-07-04T08:57:55.378Z,36.32
2018-07-04T09:00:48.966Z,35.92
2018-07-04T09:03:42.593Z,35.59
2018-07-04T09:06:36.905Z,34.99
2018-07-04T09:09:30.556Z,35.50
2018-07-04T09:12:18.090Z,35.98
2018-07-04T09:15:05.675Z,35.77
2018-07-04T09:17:59.172Z,36.38
2018-07-04T09:20:52.800Z,35.15
2018-07-04T09:23:46.309Z,35.26
2018-07-04T09:26:39.882Z,35.78
2018-07-04T09:29:33.603Z,36.28
2018-07-04T09:32:32.897Z,35.71
2018-07-04T09:35:28.317Z,36.66
2018-07-04T09:38:26.596Z,35.70
2018-07-04T09:41:23.108Z,37.12
2018-07-04T09:44:21.328Z,37.25
2018-07-04T09:47:16.271Z,36.28
2018-07-04T09:50:10.375Z,37.05
2018-07-04T09:53:03.825Z,36.37
2018-07-04T09:55:57.250Z,36.78
2018-07-04T09:58:51.059Z,36.03
2018-07-04T10:01:38.781Z,34.45
2018-07-04T10:04:32.204Z,33.00
2018-07-04T10:07:25.908Z,33.46
2018-07-04T10:10:20.203Z,34.09
2018-07-04T10:13:17.151Z,35.00
2018-07-04T10:16:10.721Z,35.57
2018-07-04T10:19:04.320Z,35.79
2018-07-04T10:21:58.093Z,36.87
2018-07-04T10:24:51.746Z,36.00
2018-07-04T10:27:45.240Z,36.56
2018-07-04T10:30:38.954Z,36.24
2018-07-04T10:33:32.519Z,36.68
2018-07-04T10:36:26.107Z,36.38
2018-07-04T10:39:19.707Z,35.21
2018-07-04T10:42:13.558Z,33.88
2018-07-04T10:45:07.158Z,33.57
2018-07-04T10:48:00.978Z,33.74
2018-07-04T10:50:54.906Z,34.17
2018-07-04T10:53:48.746Z,33.61
2018-07-04T10:56:42.389Z,32.82
2018-07-04T10:59:35.933Z,32.36
2018-07-04T11:02:32.768Z,32.63
2018-07-04T11:05:27.758Z,32.26
2018-07-04T11:08:21.554Z,31.07
2018-07-04T11:11:16.917Z,31.84
2018-07-04T11:14:05.767Z,30.43
2018-07-04T11:16:59.652Z,30.90
2018-07-04T11:19:53.350Z,30.21
2018-07-04T11:22:49.317Z,28.75
2018-07-04T11:25:42.912Z,30.04
2018-07-04T11:28:36.583Z,29.58
2018-07-04T11:31:31.415Z,30.74
2018-07-04T11:34:25.313Z,31.47
2018-07-04T11:37:18.960Z,29.89
2018-07-04T11:40:12.596Z,30.39
2018-07-04T11:43:06.127Z,30.56
2018-07-04T11:45:59.573Z,29.12
2018-07-04T11:48:28.646Z,29.01
2018-07-04T11:50:57.452Z,29.14
2018-07-04T11:53:26.237Z,29.50
2018-07-04T11:55:55.060Z,29.77
2018-07-04T11:58:24.056Z,28.53
2018-07-04T12:00:55.849Z,29.70
2018-07-04T12:03:26.162Z,30.17
2018-07-04T12:06:13.648Z,30.47
2018-07-04T12:08:48.676Z,29.69
2018-07-04T12:11:17.487Z,30.32
2018-07-04T12:13:46.333Z,29.49
2018-07-04T12:16:15.161Z,30.03
2018-07-04T12:18:43.993Z,29.92
2018-07-04T12:21:12.815Z,30.93
2018-07-04T12:23:49.081Z,30.27
2018-07-04T12:26:17.887Z,30.06
2018-07-04T12:28:46.693Z,30.56
2018-07-04T12:31:15.476Z,29.04
2018-07-04T12:33:44.332Z,30.00
2018-07-04T12:36:18.861Z,28.25
2018-07-04T12:38:47.684Z,28.21
2018-07-04T12:41:16.486Z,28.25
2018-07-04T12:43:45.301Z,29.40
2018-07-04T12:46:14.284Z,29.13
2018-07-04T12:48:43.069Z,30.71
2018-07-04T12:51:11.953Z,29.33
2018-07-04T12:53:41.195Z,28.89
2018-07-04T12:56:28.529Z,29.28
2018-07-04T12:59:23.372Z,31.01
2018-07-04T13:02:18.051Z,30.87
2018-07-04T13:05:08.524Z,31.33
2018-07-04T13:08:02.210Z,30.53
2018-07-04T13:10:55.941Z,32.38
2018-07-04T13:13:49.679Z,31.88
2018-07-04T13:16:43.385Z,33.16
2018-07-04T13:19:37.213Z,32.60
2018-07-04T13:22:31.137Z,33.20
2018-07-04T13:25:24.969Z,32.76
2018-07-04T13:28:18.694Z,33.28
2018-07-04T13:31:12.324Z,32.26
2018-07-04T13:34:05.955Z,33.15
2018-07-04T13:36:59.436Z,33.20
2018-07-04T13:39:53.600Z,33.76
2018-07-04T13:42:47.505Z,32.96
2018-07-04T13:45:41.134Z,33.84
2018-07-04T13:48:34.902Z,33.50
2018-07-04T13:51:28.620Z,34.11
2018-07-04T13:54:22.242Z,34.08
2018-07-04T13:57:15.996Z,33.13
2018-07-04T14:00:09.565Z,34.23
2018-07-04T14:03:03.608Z,33.51
2018-07-04T14:05:57.624Z,34.92
2018-07-04T14:08:51.587Z,35.08
2018-07-04T14:11:46.328Z,35.16
2018-07-04T14:14:40.100Z,35.54
2018-07-04T14:17:33.786Z,35.50
2018-07-04T14:20:27.385Z,35.20
2018-07-04T14:23:21.249Z,36.02
2018-07-04T14:26:15.721Z,36.66
2018-07-04T14:29:09.371Z,35.83
2018-07-04T14:32:03.234Z,36.44
2018-07-04T14:34:57.128Z,36.68
2018-07-04T14:37:50.927Z,35.74
2018-07-04T14:40:52.628Z,35.61
2018-07-04T14:46:52.735Z,37.13
2018-07-04T14:49:40.321Z,36.88
2018-07-04T14:52:33.843Z,37.01
2018-07-04T14:55:27.571Z,36.23
2018-07-04T14:58:22.967Z,36.53
2018-07-04T15:01:18.725Z,36.86
2018-07-04T15:04:12.812Z,37.72
2018-07-04T15:07:09.234Z,36.99
2018-07-04T15:10:04.021Z,37.29
2018-07-04T15:12:58.005Z,37.41
2018-07-04T15:15:51.900Z,38.28
2018-07-04T15:18:45.848Z,38.14
2018-07-04T15:21:40.498Z,38.71
2018-07-04T15:24:34.198Z,38.64
2018-07-04T15:27:27.911Z,38.16
2018-07-04T15:30:26.998Z,38.30
2018-07-04T15:37:20.211Z,38.10
2018-07-04T15:40:14.059Z,39.43
2018-07-04T15:43:07.727Z,39.04
2018-07-04T15:46:01.637Z,38.38
2018-07-04T15:48:55.386Z,39.47
2018-07-04T15:51:48.923Z,38.22
2018-07-04T15:54:42.519Z,38.53
2018-07-04T15:57:36.455Z,39.02
2018-07-04T16:00:37.623Z,38.42
2018-07-04T16:03:30.947Z,39.22
2018-07-04T16:06:24.747Z,38.92
2018-07-04T16:09:18.340Z,38.42
2018-07-04T16:12:12.303Z,39.37
2018-07-04T16:15:05.801Z,38.79
2018-07-04T16:17:59.563Z,39.46
2018-07-04T16:20:59.382Z,40.28
2018-07-04T16:23:47.184Z,39.95
2018-07-04T16:26:40.802Z,39.71
2018-07-04T16:32:45.897Z,39.84
2018-07-04T16:35:45.854Z,39.90
2018-07-04T16:41:44.267Z,39.66
2018-07-04T16:44:31.732Z,40.87
2018-07-04T16:47:25.463Z,40.18
2018-07-04T16:50:22.036Z,40.81
2018-07-04T16:53:18.341Z,41.00
2018-07-04T16:56:14.363Z,40.21
2018-07-04T16:59:12.429Z,41.00
2018-07-04T17:02:00.091Z,41.09
2018-07-04T17:04:53.652Z,41.81
2018-07-04T17:07:47.248Z,40.78
2018-07-04T17:10:41.048Z,41.08
2018-07-04T17:13:34.674Z,40.77
2018-07-04T17:16:28.400Z,41.86
2018-07-04T17:19:15.882Z,40.73
2018-07-04T17:22:09.666Z,41.89
2018-07-04T17:25:03.197Z,41.00
2018-07-04T17:27:56.750Z,41.41
2018-07-04T17:30:52.051Z,42.31
2018-07-04T17:33:45.414Z,42.06
2018-07-04T17:36:39.076Z,41.18
2018-07-04T17:39:26.562Z,41.50
2018-07-04T17:42:20.149Z,42.06
2018-07-04T17:45:13.851Z,42.00
2018-07-04T17:48:07.580Z,42.82
2018-07-04T17:51:01.342Z,42.97
2018-07-04T17:53:55.134Z,42.34
2018-07-04T17:56:43.186Z,43.23
2018-07-04T17:59:36.576Z,42.75
2018-07-04T18:02:30.246Z,42.66
2018-07-04T18:05:23.845Z,42.79
2018-07-04T18:08:17.240Z,43.18
2018-07-04T18:11:10.773Z,42.95
2018-07-04T18:14:04.377Z,44.01
2018-07-04T18:16:57.901Z,43.93
2018-07-04T18:19:51.441Z,43.64
2018-07-04T18:22:45.192Z,43.46
2018-07-04T18:25:39.100Z,43.57
2018-07-04T18:28:32.605Z,44.67
2018-07-04T18:35:23.422Z,45.48
2018-07-04T18:38:17.014Z,44.39
2018-07-04T18:41:10.486Z,44.78
2018-07-04T18:44:04.110Z,45.54
2018-07-04T18:46:57.673Z,44.84
2018-07-04T18:49:52.058Z,44.74
2018-07-04T18:52:45.590Z,44.83
2018-07-04T18:55:39.380Z,46.11
2018-07-04T18:58:32.930Z,45.92
2018-07-04T19:01:26.828Z,45.80
2018-07-04T19:04:20.035Z,45.28
2018-07-04T19:07:13.623Z,46.37
2018-07-04T19:10:01.349Z,46.64
2018-07-04T19:12:54.978Z,46.93
2018-07-04T19:15:48.762Z,46.97
2018-07-04T19:18:42.461Z,46.81
2018-07-04T19:21:35.968Z,46.50
2018-07-04T19:24:31.708Z,48.06
2018-07-04T19:27:30.884Z,47.99
2018-07-04T19:30:27.487Z,47.32
2018-07-04T19:33:17.669Z,46.96
2018-07-04T19:36:11.604Z,48.33
2018-07-04T19:39:05.982Z,48.11
2018-07-04T19:41:59.730Z,48.39
2018-07-04T19:44:53.595Z,48.89
2018-07-04T19:47:50.209Z,49.01
2018-07-04T19:50:43.943Z,49.89
2018-07-04T19:53:37.424Z,49.42
2018-07-04T19:56:31.183Z,49.08
2018-07-04T19:59:24.697Z,49.53
2018-07-04T20:02:18.237Z,51.27
2018-07-04T20:05:12.382Z,49.67
2018-07-04T20:08:06.131Z,51.30
2018-07-04T20:11:01.472Z,51.32
2018-07-04T20:13:55.705Z,51.53
2018-07-04T20:16:43.261Z,50.94
2018-07-04T20:19:36.798Z,52.00
2018-07-04T20:22:30.321Z,51.96
2018-07-04T20:25:24.019Z,51.33
2018-07-04T20:28:18.066Z,52.32
2018-07-04T20:31:12.854Z,52.02
2018-07-04T20:34:06.269Z,51.50
2018-07-04T20:37:00.157Z,52.31
2018-07-04T20:39:53.764Z,51.41
2018-07-04T20:42:47.454Z,51.58
2018-07-04T20:45:42.496Z,51.49
2018-07-04T20:48:37.973Z,51.71
2018-07-04T20:51:33.328Z,51.92
2018-07-04T20:54:28.645Z,51.92
2018-07-04T20:57:24.184Z,52.12
2018-07-04T21:00:19.083Z,52.73
2018-07-04T21:03:12.652Z,51.86
2018-07-04T21:06:06.263Z,53.00
2018-07-04T21:08:59.751Z,53.08
2018-07-04T21:12:00.125Z,52.94
2018-07-04T21:14:54.236Z,52.69
2018-07-04T21:17:49.252Z,53.40
2018-07-04T21:20:44.668Z,53.46
2018-07-04T21:23:39.214Z,52.78
2018-07-04T21:26:35.149Z,53.16
2018-07-04T21:29:30.863Z,53.70
2018-07-04T21:32:24.556Z,55.66
2018-07-04T21:35:19.046Z,55.56
2018-07-04T21:38:14.228Z,56.59
2018-07-04T21:41:10.185Z,56.19
2018-07-04T21:44:05.166Z,56.35
2018-07-04T21:46:58.893Z,57.74
2018-07-04T21:49:52.491Z,57.42
2018-07-04T21:52:48.228Z,57.70
2018-07-04T21:55:43.419Z,56.70
2018-07-04T21:58:38.910Z,56.83
2018-07-04T22:01:33.943Z,55.96
2018-07-04T22:04:29.090Z,55.94
2018-07-04T22:07:24.194Z,55.96
2018-07-04T22:10:20.392Z,55.91
2018-07-04T22:13:15.841Z,56.73
2018-07-04T22:16:11.436Z,55.87
2018-07-04T22:19:07.134Z,56.29
2018-07-04T22:22:02.793Z,55.71
2018-07-04T22:24:58.479Z,55.73
2018-07-04T22:27:54.775Z,56.42
2018-07-04T22:30:48.356Z,56.58
2018-07-04T22:33:41.987Z,56.12
2018-07-04T22:36:35.888Z,57.25
2018-07-04T22:39:30.100Z,56.73
2018-07-04T22:42:25.508Z,58.17
2018-07-04T22:45:21.255Z,58.98
2018-07-04T22:48:14.880Z,59.15
2018-07-04T22:51:09.532Z,59.29
2018-07-04T22:54:05.318Z,58.72
2018-07-04T22:57:00.807Z,59.44
2018-07-04T22:59:56.286Z,59.19
2018-07-04T23:02:51.810Z,59.06
2018-07-04T23:05:45.366Z,58.57
2018-07-04T23:08:41.139Z,58.51
2018-07-04T23:11:36.432Z,58.77
2018-07-04T23:14:25.946Z,58.84
2018-07-04T23:17:19.626Z,58.72
2018-07-04T23:20:14.982Z,57.77
2018-07-04T23:23:10.681Z,57.67
2018-07-04T23:26:04.325Z,57.38
2018-07-04T23:29:00.209Z,57.75
2018-07-04T23:31:55.685Z,58.04
2018-07-04T23:34:51.381Z,57.98
2018-07-04T23:37:46.739Z,59.01
2018-07-04T23:40:34.955Z,58.19
2018-07-04T23:43:30.606Z,57.92
2018-07-04T23:46:26.365Z,58.92
2018-07-04T23:49:22.671Z,59.16
2018-07-04T23:52:18.258Z,58.66
2018-07-04T23:55:07.846Z,58.71
2018-07-04T23:58:03.528Z,59.46
